Time;durP1;ratioP1;P1;durP2;ratioP2;P2;SDS_P1;SDS_P2;PMS_P1;PMS_P2;Temp;Humidity;BMP_temperature;BMP_pressure;BME280_temperature;BME280_humidity;BME280_pressure;Samples;Min_cycle;Max_cycle;Signal;HPM_P1;HPM_P2
2022/08/15 00:01:20;;;;;;;11.60;6.82;;;28.40;70.20;;;;;;5051973;28;20482;-66
2022/08/15 00:03:56;;;;;;;8.88;6.22;;;28.40;70.20;;;;;;5043986;28;20035;-66
2022/08/15 00:06:45;;;;;;;10.70;7.20;;;28.30;70.70;;;;;;5035038;28;20026;-66
2022/08/15 00:09:21;;;;;;;11.40;6.97;;;28.30;70.10;;;;;;5049390;28;20017;-66
2022/08/15 00:11:56;;;;;;;9.25;6.40;;;28.20;70.10;;;;;;5045260;28;20116;-66
2022/08/15 00:14:24;;;;;;;12.93;6.57;;;28.20;69.90;;;;;;5052961;28;20044;-66
2022/08/15 00:16:50;;;;;;;12.32;7.20;;;28.20;69.50;;;;;;5049148;28;20072;-66
2022/08/15 00:19:20;;;;;;;12.07;6.63;;;28.10;69.50;;;;;;5040231;28;20029;-66
2022/08/15 00:21:49;;;;;;;11.25;6.70;;;28.10;69.50;;;;;;5053680;28;20472;-66
2022/08/15 00:24:19;;;;;;;14.00;6.35;;;28.10;69.50;;;;;;5052820;28;20488;-66
2022/08/15 00:26:48;;;;;;;12.25;6.47;;;28.10;69.50;;;;;;5047217;28;20029;-66
2022/08/15 00:29:16;;;;;;;12.98;6.95;;;28.00;70.00;;;;;;5034407;28;20033;-66
2022/08/15 00:31:42;;;;;;;10.85;7.10;;;28.00;70.40;;;;;;5034767;28;20055;-66
2022/08/15 00:34:10;;;;;;;9.23;7.18;;;28.00;70.70;;;;;;5040121;28;20045;-66
2022/08/15 00:36:36;;;;;;;10.93;7.47;;;28.00;71.00;;;;;;5045442;28;20449;-66
2022/08/15 00:39:04;;;;;;;9.70;7.47;;;28.00;71.20;;;;;;5033129;28;20061;-66
2022/08/15 00:41:39;;;;;;;10.75;7.57;;;27.90;71.50;;;;;;5017934;28;20033;-66
2022/08/15 00:44:26;;;;;;;12.00;7.93;;;27.90;72.30;;;;;;5053525;28;20449;-66
2022/08/15 00:46:59;;;;;;;11.80;6.97;;;27.90;71.80;;;;;;5051453;28;20021;-66
2022/08/15 00:49:27;;;;;;;12.65;7.13;;;27.90;72.10;;;;;;5046705;28;20087;-66
2022/08/15 00:52:04;;;;;;;10.90;7.60;;;27.80;72.00;;;;;;5051455;28;20033;-66
2022/08/15 00:54:38;;;;;;;11.88;7.28;;;27.80;72.80;;;;;;5050940;28;20067;-66
2022/08/15 00:57:18;;;;;;;13.23;7.32;;;27.80;72.40;;;;;;5043587;28;20040;-66
2022/08/15 00:59:50;;;;;;;9.88;7.70;;;27.80;72.40;;;;;;5031853;28;20029;-66
2022/08/15 01:02:19;;;;;;;10.65;7.32;;;27.80;72.60;;;;;;5037452;28;20033;-66
2022/08/15 01:04:47;;;;;;;11.32;7.72;;;27.70;72.70;;;;;;5034303;28;20027;-66
2022/08/15 01:07:13;;;;;;;11.20;8.20;;;27.70;72.60;;;;;;5051425;28;20037;-66
2022/08/15 01:09:39;;;;;;;12.32;8.90;;;27.70;72.60;;;;;;5052280;28;20036;-66
2022/08/15 01:12:10;;;;;;;12.70;7.97;;;27.70;72.70;;;;;;5051520;28;20036;-66
2022/08/15 01:14:38;;;;;;;13.63;7.70;;;27.70;72.60;;;;;;5039579;28;20041;-65
2022/08/15 01:17:06;;;;;;;11.40;7.53;;;27.60;72.50;;;;;;5051261;28;20029;-66
2022/08/15 01:19:36;;;;;;;12.55;7.25;;;27.60;72.50;;;;;;5045612;28;20033;-66
2022/08/15 01:22:25;;;;;;;12.15;7.82;;;27.60;72.60;;;;;;5044800;28;20029;-66
2022/08/15 01:25:10;;;;;;;13.45;7.82;;;27.60;72.60;;;;;;5035061;28;20510;-66
2022/08/15 01:27:41;;;;;;;14.63;7.72;;;27.60;72.50;;;;;;5033700;28;20039;-66
2022/08/15 01:30:11;;;;;;;15.80;7.45;;;27.50;72.50;;;;;;5033858;28;20116;-66
2022/08/15 01:32:37;;;;;;;12.48;7.72;;;27.50;72.50;;;;;;5040917;28;20032;-65
2022/08/15 01:35:04;;;;;;;10.68;7.95;;;27.50;72.50;;;;;;5053274;28;20048;-66
2022/08/15 01:37:31;;;;;;;10.20;8.05;;;27.50;72.50;;;;;;5034245;28;20033;-66
2022/08/15 01:40:02;;;;;;;13.45;8.23;;;27.40;72.50;;;;;;5037501;28;20033;-66
2022/08/15 01:42:41;;;;;;;11.93;7.90;;;27.40;72.70;;;;;;5023697;28;20028;-66
2022/08/15 01:45:07;;;;;;;12.00;7.78;;;27.40;72.80;;;;;;5017607;28;20501;-66
2022/08/15 01:48:17;;;;;;;13.10;8.13;;;27.40;72.90;;;;;;5044231;28;20108;-66
2022/08/15 01:50:49;;;;;;;11.30;8.27;;;27.40;72.90;;;;;;5040327;28;20116;-66
2022/08/15 01:53:24;;;;;;;13.02;8.20;;;27.30;72.90;;;;;;5047219;28;20491;-66
2022/08/15 01:56:19;;;;;;;13.13;7.75;;;27.30;73.00;;;;;;5027551;28;20487;-66
2022/08/15 01:58:45;;;;;;;14.15;7.60;;;27.30;73.10;;;;;;5032674;28;20072;-66
2022/08/15 02:01:15;;;;;;;11.07;8.02;;;27.30;73.10;;;;;;5038746;28;20381;-66
2022/08/15 02:03:42;;;;;;;15.20;8.05;;;27.20;73.20;;;;;;5051474;28;20024;-66
2022/08/15 02:06:29;;;;;;;17.02;7.90;;;27.20;73.30;;;;;;5032796;28;20444;-66
2022/08/15 02:08:56;;;;;;;9.38;7.85;;;27.20;73.30;;;;;;5051852;28;20029;-65
2022/08/15 02:11:29;;;;;;;12.55;7.65;;;27.20;73.40;;;;;;5033376;28;20112;-66
2022/08/15 02:13:56;;;;;;;12.93;8.20;;;27.20;73.50;;;;;;5033465;28;20091;-66
2022/08/15 02:16:30;;;;;;;10.63;8.35;;;27.10;73.40;;;;;;5050259;28;20024;-66
2022/08/15 02:18:59;;;;;;;12.40;7.20;;;27.20;73.60;;;;;;5033670;28;20491;-66
2022/08/15 02:21:27;;;;;;;12.60;7.50;;;27.20;73.70;;;;;;5034331;28;20052;-65
2022/08/15 02:23:57;;;;;;;11.27;7.60;;;27.10;73.70;;;;;;5019561;28;20091;-66
2022/08/15 02:26:23;;;;;;;13.90;7.97;;;27.10;73.80;;;;;;5033960;28;20036;-66
2022/08/15 02:28:49;;;;;;;8.95;7.50;;;27.10;73.90;;;;;;5033130;28;20124;-66
2022/08/15 02:31:19;;;;;;;9.93;7.40;;;27.10;74.00;;;;;;5035599;28;20052;-66
2022/08/15 02:33:51;;;;;;;12.52;8.75;;;27.00;74.00;;;;;;5020032;28;20491;-66
2022/08/15 02:36:18;;;;;;;11.98;7.85;;;27.00;74.10;;;;;;5029805;28;20041;-65
2022/08/15 02:38:45;;;;;;;10.57;7.57;;;27.00;74.20;;;;;;5035815;28;20111;-66
2022/08/15 02:41:20;;;;;;;11.18;7.88;;;27.00;74.30;;;;;;5070969;28;20107;-66
2022/08/15 02:43:46;;;;;;;10.98;7.65;;;26.90;74.20;;;;;;5036977;28;20017;-66
2022/08/15 02:46:16;;;;;;;14.93;8.57;;;27.00;74.30;;;;;;5054388;28;20044;-66
2022/08/15 02:48:48;;;;;;;13.18;7.80;;;27.00;74.40;;;;;;5026176;28;20032;-65
2022/08/15 02:51:16;;;;;;;10.75;8.35;;;26.90;74.60;;;;;;5034861;28;20172;-65
2022/08/15 02:53:46;;;;;;;10.18;7.63;;;26.90;74.40;;;;;;5022115;28;20432;-65
2022/08/15 02:56:13;;;;;;;13.93;8.30;;;26.90;74.40;;;;;;5010275;28;20025;-65
2022/08/15 02:58:39;;;;;;;14.82;8.35;;;26.90;74.30;;;;;;5013864;28;20081;-65
2022/08/15 03:01:09;;;;;;;15.25;8.88;;;26.80;74.40;;;;;;5013665;28;20477;-66
2022/08/15 03:03:38;;;;;;;12.88;7.70;;;26.90;74.30;;;;;;5014190;28;20030;-65
2022/08/15 03:06:08;;;;;;;13.10;8.52;;;26.80;74.20;;;;;;5012978;28;20021;-65
2022/08/15 03:08:40;;;;;;;13.25;8.70;;;26.90;74.30;;;;;;5013082;28;20026;-65
2022/08/15 03:11:07;;;;;;;15.68;8.43;;;26.90;74.20;;;;;;5013318;28;20018;-65
2022/08/15 03:13:36;;;;;;;13.40;8.82;;;26.90;74.10;;;;;;5001323;28;20037;-66
2022/08/15 03:16:03;;;;;;;12.45;8.95;;;26.80;74.00;;;;;;5012435;28;20112;-66
2022/08/15 03:18:35;;;;;;;15.63;8.85;;;26.80;74.00;;;;;;5014280;28;20036;-65
2022/08/15 03:21:10;;;;;;;13.73;9.63;;;26.80;74.10;;;;;;5012866;28;20073;-65
2022/08/15 03:23:36;;;;;;;13.60;9.02;;;26.70;74.00;;;;;;5013152;28;20018;-65
2022/08/15 03:26:03;;;;;;;11.93;9.43;;;26.80;74.20;;;;;;4996376;28;20026;-65
2022/08/15 03:28:32;;;;;;;16.23;9.32;;;26.80;74.20;;;;;;5006459;28;20033;-65
2022/08/15 03:31:05;;;;;;;14.13;9.25;;;26.70;74.10;;;;;;5002710;28;20389;-66
2022/08/15 03:33:36;;;;;;;13.68;9.15;;;26.70;73.90;;;;;;4999943;28;20053;-65
2022/08/15 03:36:02;;;;;;;14.60;9.63;;;26.70;74.00;;;;;;5013821;28;20088;-65
2022/08/15 03:38:29;;;;;;;16.17;10.20;;;26.70;74.00;;;;;;5013047;28;20022;-65
2022/08/15 03:40:54;;;;;;;16.52;9.43;;;26.70;73.90;;;;;;5013304;28;20180;-65
2022/08/15 03:43:28;;;;;;;12.20;9.68;;;26.60;73.80;;;;;;5012930;28;20018;-65
2022/08/15 03:45:58;;;;;;;13.20;9.90;;;26.70;73.90;;;;;;5002512;28;20505;-65
2022/08/15 03:48:29;;;;;;;19.35;10.32;;;26.70;73.90;;;;;;5011553;28;20033;-65
2022/08/15 03:50:59;;;;;;;14.55;9.95;;;26.60;74.40;;;;;;5012764;28;20030;-65
2022/08/15 03:53:28;;;;;;;12.93;10.25;;;26.60;73.80;;;;;;5041244;28;20571;-65
2022/08/15 03:55:57;;;;;;;14.00;10.30;;;26.60;73.90;;;;;;5031516;28;20053;-65
2022/08/15 03:58:22;;;;;;;15.18;10.68;;;26.60;74.00;;;;;;5033364;28;20120;-65
2022/08/15 04:00:49;;;;;;;15.52;10.48;;;26.50;74.00;;;;;;5032083;28;20127;-66
2022/08/15 04:03:18;;;;;;;16.30;10.30;;;26.60;74.10;;;;;;5031655;28;20056;-65
2022/08/15 04:05:50;;;;;;;13.93;11.13;;;26.50;74.20;;;;;;5031746;28;20112;-65
2022/08/15 04:08:18;;;;;;;16.70;10.75;;;26.50;74.20;;;;;;5033053;28;20488;-65
2022/08/15 04:10:46;;;;;;;16.10;10.35;;;26.50;74.30;;;;;;5032564;28;20489;-65
2022/08/15 04:13:12;;;;;;;12.55;9.75;;;26.50;74.40;;;;;;5032595;28;20022;-65
2022/08/15 04:15:38;;;;;;;14.98;10.75;;;26.40;74.00;;;;;;5019563;28;20086;-65
2022/08/15 04:18:06;;;;;;;18.38;11.30;;;26.40;74.10;;;;;;5033110;28;20032;-65
2022/08/15 04:20:32;;;;;;;16.70;10.60;;;26.30;74.20;;;;;;5032227;28;20056;-65
2022/08/15 04:23:04;;;;;;;14.15;10.00;;;26.30;74.30;;;;;;5065382;28;20025;-65
2022/08/15 04:25:35;;;;;;;19.23;10.35;;;26.30;74.50;;;;;;5031930;28;20485;-65
2022/08/15 04:28:03;;;;;;;13.63;10.23;;;26.30;74.60;;;;;;5024031;28;20069;-65
2022/08/15 04:30:40;;;;;;;15.05;10.77;;;26.20;74.80;;;;;;5013125;28;20088;-65
2022/08/15 04:33:16;;;;;;;15.23;10.18;;;26.20;75.10;;;;;;5025500;28;20033;-65
2022/08/15 04:35:49;;;;;;;20.70;10.57;;;26.20;75.20;;;;;;5019602;28;20205;-65
2022/08/15 04:38:16;;;;;;;16.48;10.93;;;26.20;75.30;;;;;;5030291;28;20064;-65
2022/08/15 04:40:44;;;;;;;13.57;10.68;;;26.20;75.50;;;;;;5020900;28;20037;-65
2022/08/15 04:43:10;;;;;;;24.50;10.75;;;26.10;75.60;;;;;;5033038;28;20099;-65
2022/08/15 04:45:38;;;;;;;21.00;11.60;;;26.10;75.90;;;;;;5024572;28;20032;-65
2022/08/15 04:48:05;;;;;;;15.35;10.07;;;26.10;76.10;;;;;;5027097;28;20384;-65
2022/08/15 04:50:34;;;;;;;20.73;10.85;;;26.00;76.10;;;;;;5031554;28;20033;-65
2022/08/15 04:53:05;;;;;;;18.65;11.52;;;26.00;76.30;;;;;;5023312;28;20088;-65
2022/08/15 04:55:41;;;;;;;11.88;8.35;;;26.00;76.40;;;;;;5009090;28;20038;-64
2022/08/15 04:58:10;;;;;;;12.05;8.18;;;26.00;76.10;;;;;;5008944;28;20018;-64
2022/08/15 05:00:40;;;;;;;12.55;8.68;;;25.90;75.90;;;;;;5010719;28;20370;-64
2022/08/15 05:03:16;;;;;;;17.52;10.63;;;26.00;76.00;;;;;;5010758;28;20367;-64
2022/08/15 05:05:52;;;;;;;18.00;10.50;;;25.90;76.20;;;;;;5010153;28;20113;-64
2022/08/15 05:08:20;;;;;;;18.65;9.88;;;25.90;76.40;;;;;;5025578;28;20109;-65
2022/08/15 05:10:54;;;;;;;14.35;9.30;;;25.90;76.40;;;;;;5009528;28;20038;-64
2022/08/15 05:13:27;;;;;;;14.27;9.35;;;25.90;76.60;;;;;;5010023;28;20030;-64
2022/08/15 05:15:54;;;;;;;13.83;10.07;;;25.90;76.80;;;;;;5008033;28;20034;-64
2022/08/15 05:18:23;;;;;;;17.33;11.25;;;25.80;76.80;;;;;;5011800;28;20026;-65
2022/08/15 05:20:50;;;;;;;14.75;10.45;;;25.80;77.00;;;;;;5010615;28;20057;-65
2022/08/15 05:23:18;;;;;;;15.38;10.40;;;25.80;77.20;;;;;;5013204;28;20365;-65
2022/08/15 05:25:52;;;;;;;15.88;9.48;;;25.80;77.50;;;;;;5010451;28;20041;-64
2022/08/15 05:28:19;;;;;;;15.48;9.90;;;25.80;77.90;;;;;;5007550;28;20116;-64
2022/08/15 05:30:44;;;;;;;15.02;10.45;;;25.70;78.10;;;;;;5010195;28;20069;-64
2022/08/15 05:33:14;;;;;;;18.30;10.32;;;25.80;78.20;;;;;;5009714;28;20698;-64
2022/08/15 05:35:44;;;;;;;12.85;9.68;;;25.80;78.50;;;;;;5010366;28;20034;-64
2022/08/15 05:38:14;;;;;;;12.85;9.85;;;25.70;78.50;;;;;;5001139;28;20025;-64
2022/08/15 05:41:22;;;;;;;13.63;9.52;;;25.70;78.50;;;;;;4994014;28;20038;-65
2022/08/15 05:44:16;;;;;;;14.13;9.57;;;25.80;78.40;;;;;;4999009;28;20453;-65
2022/08/15 05:46:46;;;;;;;14.05;9.82;;;25.70;77.90;;;;;;5010189;28;20405;-65
2022/08/15 05:49:39;;;;;;;12.07;9.40;;;25.70;77.90;;;;;;5009456;28;20029;-65
2022/08/15 05:52:11;;;;;;;14.88;8.95;;;25.70;78.00;;;;;;5015972;28;20037;-64
2022/08/15 05:55:14;;;;;;;15.60;10.23;;;25.70;78.30;;;;;;5006523;28;20056;-65
2022/08/15 05:58:14;;;;;;;15.93;9.50;;;25.80;78.20;;;;;;4997763;28;20038;-65
2022/08/15 06:00:54;;;;;;;14.13;9.55;;;25.70;78.00;;;;;;5004120;28;20025;-64
2022/08/15 06:03:26;;;;;;;14.85;9.23;;;25.80;78.20;;;;;;4999532;28;20036;-64
2022/08/15 06:05:59;;;;;;;14.82;10.00;;;25.70;78.10;;;;;;5004186;28;20119;-65
2022/08/15 06:08:28;;;;;;;13.50;9.50;;;25.70;78.00;;;;;;5008506;28;20030;-65
2022/08/15 06:11:10;;;;;;;12.73;9.95;;;25.70;77.90;;;;;;5005702;28;20034;-65
2022/08/15 06:13:43;;;;;;;19.20;9.98;;;25.70;77.80;;;;;;4991790;28;20482;-65
2022/08/15 06:16:17;;;;;;;14.15;10.43;;;25.80;77.70;;;;;;5037912;28;20375;-65
2022/08/15 06:18:46;;;;;;;14.80;9.88;;;25.80;77.60;;;;;;5010651;28;20029;-65
2022/08/15 06:21:33;;;;;;;14.15;10.48;;;25.80;77.60;;;;;;4998604;28;20029;-65
2022/08/15 06:24:10;;;;;;;20.27;10.25;;;25.90;77.70;;;;;;5006693;28;20397;-65
2022/08/15 06:27:02;;;;;;;13.48;10.27;;;25.80;77.70;;;;;;5003792;28;20125;-65
2022/08/15 06:29:41;;;;;;;17.92;10.38;;;25.90;77.80;;;;;;4999814;28;20036;-64
2022/08/15 06:32:39;;;;;;;15.95;10.02;;;25.90;77.90;;;;;;5009925;28;20026;-65
2022/08/15 06:35:17;;;;;;;17.67;10.60;;;25.90;77.70;;;;;;5011181;28;20393;-65
2022/08/15 06:38:13;;;;;;;14.23;9.27;;;25.90;77.70;;;;;;5009135;28;20026;-64
2022/08/15 06:40:59;;;;;;;16.88;9.93;;;25.90;77.50;;;;;;5008747;28;20036;-65
2022/08/15 06:43:25;;;;;;;14.52;9.90;;;25.90;77.40;;;;;;5007705;28;20033;-65
2022/08/15 06:46:05;;;;;;;20.98;10.18;;;25.90;77.30;;;;;;5010035;28;20068;-64
2022/08/15 06:48:34;;;;;;;18.08;9.95;;;25.90;77.30;;;;;;5009123;28;20029;-65
2022/08/15 06:51:05;;;;;;;17.50;10.60;;;26.00;77.50;;;;;;5007548;28;20481;-65
2022/08/15 06:53:39;;;;;;;19.60;10.70;;;26.00;77.40;;;;;;5010531;28;20050;-66
2022/08/15 06:56:17;;;;;;;17.92;11.13;;;26.00;77.40;;;;;;4999030;28;20030;-65
2022/08/15 06:58:49;;;;;;;17.15;10.10;;;26.10;77.60;;;;;;5010094;28;20458;-65
2022/08/15 07:01:28;;;;;;;15.20;9.65;;;26.10;77.70;;;;;;5008758;28;20553;-65
2022/08/15 07:04:15;;;;;;;21.48;11.40;;;26.10;77.80;;;;;;5008442;28;20040;-65
2022/08/15 07:06:50;;;;;;;23.88;10.77;;;26.20;77.90;;;;;;5008299;28;20022;-65
2022/08/15 07:09:42;;;;;;;19.25;10.05;;;26.20;78.10;;;;;;5007093;28;20120;-65
2022/08/15 07:12:10;;;;;;;17.80;9.98;;;26.10;78.10;;;;;;5006625;28;20481;-65
2022/08/15 07:15:08;;;;;;;18.17;9.00;;;26.20;78.30;;;;;;5006280;28;20034;-64
2022/08/15 07:17:47;;;;;;;13.82;7.95;;;26.20;78.00;;;;;;4952268;28;20049;-64
2022/08/15 07:20:13;;;;;;;15.32;9.00;;;26.20;77.40;;;;;;5011958;28;20033;-64
2022/08/15 07:22:40;;;;;;;12.70;9.15;;;26.20;77.30;;;;;;5011702;28;20045;-65
2022/08/15 07:25:13;;;;;;;11.27;7.68;;;26.30;77.00;;;;;;5011621;28;20026;-65
2022/08/15 07:27:39;;;;;;;10.93;8.30;;;26.30;76.70;;;;;;5027280;28;20068;-65
2022/08/15 07:30:20;;;;;;;20.48;7.10;;;26.30;76.60;;;;;;5036939;28;20064;-65
2022/08/15 07:32:50;;;;;;;13.48;8.35;;;26.40;76.70;;;;;;5009250;28;20109;-65
2022/08/15 07:35:19;;;;;;;16.80;8.48;;;26.50;76.80;;;;;;5011153;28;20038;-65
2022/08/15 07:37:59;;;;;;;13.82;8.30;;;26.50;77.00;;;;;;5011160;28;20026;-65
2022/08/15 07:40:26;;;;;;;12.52;8.95;;;26.50;77.20;;;;;;5010668;28;20420;-65
2022/08/15 07:42:52;;;;;;;11.43;8.52;;;26.50;77.30;;;;;;5012259;28;20032;-65
2022/08/15 07:45:32;;;;;;;14.60;9.27;;;26.60;77.40;;;;;;5008658;28;20038;-66
2022/08/15 07:48:28;;;;;;;17.20;9.57;;;26.70;77.90;;;;;;5008286;28;20052;-66
2022/08/15 07:51:19;;;;;;;17.38;9.27;;;26.70;78.20;;;;;;5009410;28;20033;-65
2022/08/15 07:54:03;;;;;;;13.05;8.80;;;26.70;78.50;;;;;;5012995;28;20061;-65
2022/08/15 07:56:52;;;;;;;15.05;8.70;;;26.70;78.60;;;;;;5011146;28;20109;-65
2022/08/15 07:59:22;;;;;;;9.10;6.75;;;26.80;77.90;;;;;;5011495;28;20548;-65
2022/08/15 08:02:23;;;;;;;9.73;7.30;;;26.80;77.40;;;;;;5022596;28;20027;-64
2022/08/15 08:04:49;;;;;;;14.82;6.43;;;26.90;76.80;;;;;;5009459;28;20338;-65
2022/08/15 08:07:30;;;;;;;9.40;7.03;;;26.90;76.10;;;;;;5009213;28;20408;-64
2022/08/15 08:10:15;;;;;;;8.57;6.95;;;26.90;76.00;;;;;;5029233;28;20493;-64
2022/08/15 08:12:58;;;;;;;8.45;6.68;;;27.00;75.90;;;;;;5045133;28;20026;-64
2022/08/15 08:15:54;;;;;;;12.73;6.85;;;27.00;75.60;;;;;;5010358;28;20033;-64
2022/08/15 08:18:47;;;;;;;11.43;6.72;;;27.00;75.40;;;;;;5011305;28;20128;-64
2022/08/15 08:21:29;;;;;;;11.30;6.10;;;27.10;75.40;;;;;;5012986;28;20504;-64
2022/08/15 08:24:08;;;;;;;9.88;6.47;;;27.20;75.30;;;;;;5011681;28;20038;-64
2022/08/15 08:26:46;;;;;;;7.13;6.03;;;27.20;75.20;;;;;;5011594;28;20030;-64
2022/08/15 08:29:34;;;;;;;14.48;7.00;;;27.20;75.00;;;;;;5013483;28;20092;-65
2022/08/15 08:32:24;;;;;;;8.48;6.22;;;27.30;74.60;;;;;;5013662;28;20048;-64
2022/08/15 08:35:31;;;;;;;14.27;7.07;;;27.40;74.50;;;;;;5013575;28;20049;-65
2022/08/15 08:38:12;;;;;;;14.02;7.82;;;27.40;74.40;;;;;;5013845;28;20112;-64
2022/08/15 08:43:49;;;;;;;13.25;7.88;;;27.50;74.50;;;;;;5013099;28;20400;-65
2022/08/15 08:46:28;;;;;;;16.02;7.80;;;27.60;74.50;;;;;;5010848;28;20034;-65
2022/08/15 08:49:03;;;;;;;8.88;6.13;;;27.50;74.50;;;;;;5009634;28;20030;-65
2022/08/15 08:51:38;;;;;;;9.60;5.55;;;27.60;74.40;;;;;;5005662;28;20033;-65
2022/08/15 08:54:10;;;;;;;9.15;6.82;;;27.60;74.40;;;;;;5035778;28;20049;-65
2022/08/15 08:56:40;;;;;;;24.55;7.05;;;27.60;74.30;;;;;;5051816;28;20032;-65
2022/08/15 08:59:24;;;;;;;18.35;5.93;;;27.60;74.20;;;;;;5049750;28;20027;-65
2022/08/15 09:01:54;;;;;;;10.70;5.93;;;27.60;74.10;;;;;;5049838;28;20032;-65
2022/08/15 09:04:28;;;;;;;10.18;6.45;;;27.70;74.10;;;;;;5049175;28;20044;-65
2022/08/15 09:06:56;;;;;;;22.20;6.15;;;27.70;74.20;;;;;;5051235;28;20025;-64
2022/08/15 09:09:33;;;;;;;10.10;5.10;;;27.70;73.90;;;;;;5046242;28;20039;-65
2022/08/15 09:14:51;;;;;;;6.70;4.43;;;27.80;72.80;;;;;;5034942;28;20072;-65
2022/08/15 09:17:19;;;;;;;16.75;4.45;;;27.90;72.10;;;;;;5047853;28;20460;-65
2022/08/15 09:19:51;;;;;;;5.15;3.67;;;28.00;71.40;;;;;;5050910;28;20074;-65
2022/08/15 09:22:18;;;;;;;7.15;4.15;;;28.00;71.20;;;;;;5051021;28;20472;-64
2022/08/15 09:24:44;;;;;;;8.55;3.72;;;28.00;70.70;;;;;;5052687;28;20029;-65
2022/08/15 09:27:16;;;;;;;5.80;3.50;;;28.10;70.70;;;;;;5051025;28;20614;-64
2022/08/15 09:29:50;;;;;;;;;;;28.10;70.30;;;;;;5052873;28;20037;-65
2022/08/15 09:32:28;;;;;;;8.30;3.80;;;28.20;71.30;;;;;;5051031;28;20271;-64
2022/08/15 09:35:21;;;;;;;8.15;4.05;;;28.20;71.10;;;;;;5052223;28;20040;-64
2022/08/15 09:37:49;;;;;;;;;;;28.30;71.00;;;;;;5052867;28;20040;-64
2022/08/15 09:40:35;;;;;;;5.03;3.40;;;28.30;72.30;;;;;;5046723;28;19968;-64
2022/08/15 09:43:12;;;;;;;10.13;3.47;;;28.40;71.60;;;;;;5043023;28;20063;-64
2022/08/15 09:45:51;;;;;;;7.38;3.80;;;28.40;71.10;;;;;;5048072;28;20021;-64
2022/08/15 09:48:50;;;;;;;10.98;4.18;;;28.50;70.90;;;;;;5047579;28;20075;-65
2022/08/15 09:51:48;;;;;;;6.10;4.18;;;28.60;71.20;;;;;;5043547;28;20039;-64
2022/08/15 09:54:20;;;;;;;8.68;4.43;;;28.60;71.10;;;;;;5040711;28;20037;-64
2022/08/15 09:56:46;;;;;;;6.07;4.03;;;28.80;71.00;;;;;;5042332;28;20124;-64
2022/08/15 09:59:21;;;;;;;12.98;4.45;;;28.80;70.90;;;;;;5045521;28;20518;-64
2022/08/15 10:01:56;;;;;;;5.72;3.80;;;28.80;70.60;;;;;;5043368;28;20033;-65
2022/08/15 10:04:57;;;;;;;10.05;4.32;;;28.90;71.10;;;;;;5044021;28;20040;-64
2022/08/15 10:07:42;;;;;;;7.38;4.13;;;29.00;71.30;;;;;;5044735;28;20032;-65
2022/08/15 10:10:36;;;;;;;17.00;3.70;;;29.00;71.10;;;;;;5051030;28;20066;-65
2022/08/15 10:13:07;;;;;;;13.48;3.38;;;29.10;71.00;;;;;;5034655;28;20037;-65
2022/08/15 10:15:41;;;;;;;9.73;4.00;;;29.10;71.00;;;;;;5036062;28;20040;-64
2022/08/15 10:18:08;;;;;;;4.28;3.70;;;29.20;71.00;;;;;;5052377;28;20033;-64
2022/08/15 10:20:34;;;;;;;6.88;4.43;;;29.30;70.50;;;;;;5050761;28;20475;-64
2022/08/15 10:22:59;;;;;;;5.72;4.00;;;29.30;69.80;;;;;;5051524;28;20029;-65
2022/08/15 10:25:36;;;;;;;5.13;3.65;;;29.30;69.70;;;;;;5050747;28;20178;-64
2022/08/15 10:28:11;;;;;;;6.10;4.18;;;29.40;69.50;;;;;;5052108;28;20040;-64
2022/08/15 10:30:48;;;;;;;6.28;4.10;;;29.40;68.80;;;;;;5047937;28;20029;-64
2022/08/15 10:33:33;;;;;;;4.97;3.83;;;29.40;68.70;;;;;;5048209;28;20104;-65
2022/08/15 10:36:05;;;;;;;5.97;4.22;;;29.50;68.40;;;;;;5045846;28;20443;-65
2022/08/15 10:38:32;;;;;;;8.75;4.53;;;29.50;67.50;;;;;;5044832;28;20033;-66
2022/08/15 10:41:10;;;;;;;9.75;4.50;;;29.60;68.00;;;;;;5040730;28;20081;-65
2022/08/15 10:43:40;;;;;;;7.85;3.92;;;29.60;67.70;;;;;;5041226;28;20369;-65
2022/08/15 10:46:23;;;;;;;5.88;3.90;;;29.70;67.80;;;;;;5042952;28;20056;-65
2022/08/15 10:48:53;;;;;;;;;;;29.70;67.40;;;;;;5045173;28;20107;-65
2022/08/15 10:51:46;;;;;;;7.40;4.72;;;29.80;68.70;;;;;;5044244;28;19913;-65
2022/08/15 10:54:20;;;;;;;;;;;29.70;67.60;;;;;;5046940;28;20049;-65
2022/08/15 10:56:45;;;;;;;7.32;3.80;;;29.80;68.70;;;;;;5046760;28;19916;-65
2022/08/15 10:59:19;;;;;;;7.65;4.25;;;29.80;68.10;;;;;;5046881;28;20502;-65
2022/08/15 11:01:47;;;;;;;5.90;3.90;;;29.90;67.50;;;;;;5047954;28;20033;-65
2022/08/15 11:04:26;;;;;;;6.90;3.80;;;29.90;66.80;;;;;;5044613;28;20376;-65
2022/08/15 11:06:53;;;;;;;6.30;4.00;;;30.00;66.40;;;;;;5046954;28;20029;-65
2022/08/15 11:09:21;;;;;;;6.53;4.10;;;30.00;66.90;;;;;;5045588;28;20129;-66
2022/08/15 11:11:55;;;;;;;9.40;4.47;;;30.10;66.70;;;;;;5046116;28;20104;-65
2022/08/15 11:14:37;;;;;;;5.47;3.90;;;30.10;66.60;;;;;;5046658;28;20041;-65
2022/08/15 11:17:05;;;;;;;8.38;4.40;;;30.20;66.20;;;;;;5044570;28;20021;-65
2022/08/15 11:19:33;;;;;;;7.35;4.65;;;30.20;66.10;;;;;;5044825;28;20041;-65
2022/08/15 11:22:04;;;;;;;7.28;4.88;;;30.30;66.10;;;;;;5046374;28;20025;-65
2022/08/15 11:24:33;;;;;;;6.38;4.57;;;30.40;67.20;;;;;;5046302;28;20476;-65
2022/08/15 11:27:22;;;;;;;10.63;5.10;;;30.40;68.10;;;;;;5044701;28;20059;-65
2022/08/15 11:29:48;;;;;;;6.68;4.18;;;30.40;68.60;;;;;;5047093;28;20552;-65
2022/08/15 11:32:34;;;;;;;6.05;3.95;;;30.40;68.80;;;;;;5045857;28;20017;-65
2022/08/15 11:35:04;;;;;;;5.20;3.35;;;30.40;69.20;;;;;;5045680;28;20041;-65
2022/08/15 11:37:38;;;;;;;6.05;4.47;;;30.30;68.80;;;;;;5047058;28;20468;-65
2022/08/15 11:40:23;;;;;;;6.82;3.45;;;30.20;67.80;;;;;;5046867;28;20030;-65
2022/08/15 11:42:50;;;;;;;5.78;4.55;;;30.30;68.20;;;;;;5046902;28;20021;-65
2022/08/15 11:45:18;;;;;;;15.60;4.22;;;30.30;67.90;;;;;;5045839;28;20029;-65
2022/08/15 11:47:53;;;;;;;8.82;4.47;;;30.30;67.70;;;;;;5045304;28;20506;-65
2022/08/15 11:50:29;;;;;;;9.35;3.47;;;30.30;67.30;;;;;;5047372;28;20040;-65
2022/08/15 11:53:02;;;;;;;8.80;5.45;;;30.40;67.60;;;;;;5045235;28;20821;-65
2022/08/15 11:55:32;;;;;;;9.40;5.13;;;30.40;67.10;;;;;;5045809;28;20075;-65
2022/08/15 11:58:01;;;;;;;5.75;3.33;;;30.40;66.70;;;;;;5043665;28;20059;-65
2022/08/15 12:00:41;;;;;;;7.25;3.83;;;30.50;66.70;;;;;;5046165;28;20079;-65
2022/08/15 12:03:22;;;;;;;8.55;5.57;;;30.50;67.00;;;;;;5043760;28;20021;-66
2022/08/15 12:05:50;;;;;;;4.65;3.35;;;30.50;66.80;;;;;;5043301;28;20033;-65
2022/08/15 12:08:28;;;;;;;12.43;7.35;;;30.60;67.10;;;;;;5045378;28;20039;-65
2022/08/15 12:11:27;;;;;;;11.02;7.85;;;30.60;67.20;;;;;;5040920;28;20484;-65
2022/08/15 12:14:11;;;;;;;10.68;7.15;;;30.60;68.40;;;;;;5001549;28;20122;-65
2022/08/15 12:16:45;;;;;;;14.65;8.57;;;30.60;67.50;;;;;;5042857;28;20040;-65
2022/08/15 12:19:38;;;;;;;14.02;7.32;;;30.60;67.50;;;;;;5044603;28;20036;-65
2022/08/15 12:22:13;;;;;;;13.60;8.80;;;30.70;67.80;;;;;;5043538;28;20021;-65
2022/08/15 12:24:42;;;;;;;19.52;7.95;;;30.70;67.70;;;;;;5045931;28;20044;-65
2022/08/15 12:27:10;;;;;;;17.40;7.78;;;30.70;67.50;;;;;;5044017;28;20174;-65
2022/08/15 12:29:36;;;;;;;9.75;6.45;;;30.70;67.30;;;;;;5042277;28;20044;-65
2022/08/15 12:32:05;;;;;;;14.70;7.78;;;30.70;66.60;;;;;;5045102;28;20471;-65
2022/08/15 12:34:49;;;;;;;10.45;6.80;;;30.70;65.90;;;;;;5043830;28;20033;-65
2022/08/15 12:37:24;;;;;;;13.50;7.63;;;30.70;65.90;;;;;;5041590;28;20132;-65
2022/08/15 12:40:05;;;;;;;11.27;7.65;;;30.70;65.80;;;;;;5040833;28;20029;-65
2022/08/15 12:42:36;;;;;;;10.05;7.18;;;30.70;66.00;;;;;;5043672;28;20029;-65
2022/08/15 12:45:14;;;;;;;9.93;6.93;;;30.70;66.00;;;;;;5042714;28;20115;-65
2022/08/15 12:47:42;;;;;;;11.25;7.32;;;30.70;66.10;;;;;;5043166;28;20032;-65
2022/08/15 12:50:08;;;;;;;14.40;6.80;;;30.70;66.10;;;;;;5042653;28;20040;-65
2022/08/15 12:52:36;;;;;;;11.68;6.80;;;30.80;66.20;;;;;;5042470;28;20029;-66
2022/08/15 12:55:03;;;;;;;10.73;6.07;;;30.80;65.80;;;;;;5044608;28;20059;-65
2022/08/15 12:57:29;;;;;;;10.88;6.70;;;30.80;65.70;;;;;;5044863;28;20070;-65
2022/08/15 12:59:55;;;;;;;9.32;6.40;;;30.80;65.90;;;;;;5046808;28;20032;-66
2022/08/15 13:02:21;;;;;;;8.60;6.10;;;30.80;65.90;;;;;;5047334;28;20117;-66
2022/08/15 13:04:55;;;;;;;9.38;6.25;;;30.80;65.70;;;;;;5045768;28;20123;-66
2022/08/15 13:07:22;;;;;;;8.10;5.65;;;30.90;65.80;;;;;;5046759;28;20041;-66
2022/08/15 13:09:48;;;;;;;12.93;6.35;;;30.90;65.70;;;;;;5046117;28;20068;-66
2022/08/15 13:12:15;;;;;;;10.98;6.85;;;30.90;65.70;;;;;;5046793;28;20063;-66
2022/08/15 13:14:41;;;;;;;11.93;5.97;;;30.90;65.10;;;;;;5044102;28;20065;-67
2022/08/15 13:17:08;;;;;;;9.48;5.50;;;30.90;64.80;;;;;;5042346;28;20035;-67
2022/08/15 13:25:28;;;;;;;10.57;5.80;;;30.90;65.20;;;;;;5041177;28;20111;-65